createdAt,value
2023-03-07T00:00:46.378Z,62.96
2023-03-07T00:03:14.746Z,62.99
2023-03-07T00:05:41.885Z,62.50
2023-03-07T00:08:09.271Z,62.62
2023-03-07T00:10:35.914Z,63.17
2023-03-07T00:13:04.111Z,63.27
2023-03-07T00:15:30.976Z,63.16
2023-03-07T00:17:58.300Z,63.49
2023-03-07T00:20:24.955Z,62.84
2023-03-07T00:22:51.588Z,63.15
2023-03-07T00:25:18.266Z,63.52
2023-03-07T00:27:44.894Z,62.79
2023-03-07T00:30:14.629Z,63.41
2023-03-07T00:32:41.312Z,63.57
2023-03-07T00:35:08.382Z,63.01
2023-03-07T00:37:34.975Z,62.80
2023-03-07T00:40:01.748Z,63.03
2023-03-07T00:42:28.362Z,63.18
2023-03-07T00:44:54.967Z,62.95
2023-03-07T00:47:21.828Z,63.35
2023-03-07T00:49:48.509Z,63.45
2023-03-07T00:52:15.145Z,63.23
2023-03-07T00:54:41.761Z,63.75
2023-03-07T00:57:08.364Z,63.14
2023-03-07T00:59:34.968Z,63.73
2023-03-07T01:02:01.595Z,63.96
2023-03-07T01:04:28.423Z,63.86
2023-03-07T01:06:55.068Z,63.64
2023-03-07T01:09:21.716Z,62.78
2023-03-07T01:11:49.498Z,63.89
2023-03-07T01:14:16.176Z,62.83
2023-03-07T01:16:42.906Z,62.91
2023-03-07T01:19:12.800Z,62.71
2023-03-07T01:21:42.139Z,63.14
2023-03-07T01:24:13.436Z,63.18
2023-03-07T01:26:40.168Z,63.85
2023-03-07T01:29:07.825Z,63.80
2023-03-07T01:31:35.097Z,63.74
2023-03-07T01:34:02.381Z,63.57
2023-03-07T01:36:33.045Z,62.82
2023-03-07T01:39:06.751Z,62.63
2023-03-07T01:41:38.417Z,62.96
2023-03-07T01:44:16.872Z,62.65
2023-03-07T01:46:50.499Z,63.51
2023-03-07T01:49:42.921Z,63.35
2023-03-07T01:52:14.869Z,62.87
2023-03-07T01:54:48.928Z,63.44
2023-03-07T01:57:19.520Z,63.51
2023-03-07T01:59:49.273Z,62.95
2023-03-07T02:02:19.737Z,63.82
2023-03-07T02:04:51.218Z,63.61
2023-03-07T02:07:21.117Z,62.85
2023-03-07T02:09:50.653Z,62.77
2023-03-07T02:12:17.363Z,63.64
2023-03-07T02:14:46.462Z,63.35
2023-03-07T02:17:13.485Z,62.81
2023-03-07T02:20:21.686Z,63.08
2023-03-07T02:22:49.977Z,63.34
2023-03-07T02:26:03.263Z,64.00
2023-03-07T02:28:30.270Z,63.50
2023-03-07T02:31:03.923Z,63.41
2023-03-07T02:33:30.744Z,62.84
2023-03-07T02:36:02.832Z,63.62
2023-03-07T02:38:32.292Z,63.08
2023-03-07T02:40:59.097Z,62.87
2023-03-07T02:43:25.979Z,63.88
2023-03-07T02:45:52.856Z,63.30
2023-03-07T02:48:19.504Z,62.75
2023-03-07T02:50:48.308Z,63.32
2023-03-07T02:53:15.956Z,63.44
2023-03-07T02:55:42.684Z,63.05
2023-03-07T02:58:09.324Z,63.53
2023-03-07T03:00:37.138Z,63.13
2023-03-07T03:03:04.076Z,63.53
2023-03-07T03:05:30.726Z,63.51
2023-03-07T03:07:57.445Z,62.80
2023-03-07T03:10:24.273Z,63.44
2023-03-07T03:12:50.945Z,63.55
2023-03-07T03:15:17.745Z,63.36
2023-03-07T03:17:44.445Z,62.92
2023-03-07T03:20:12.906Z,63.28
2023-03-07T03:22:40.815Z,63.67
2023-03-07T03:25:10.038Z,63.19
2023-03-07T03:27:38.103Z,63.12
2023-03-07T03:30:06.699Z,62.81
2023-03-07T03:32:33.763Z,63.90
2023-03-07T03:35:00.630Z,63.46
2023-03-07T03:37:27.587Z,63.21
2023-03-07T03:39:56.933Z,63.11
2023-03-07T03:42:23.941Z,63.40
2023-03-07T03:44:50.554Z,62.90
2023-03-07T03:47:17.277Z,63.75
2023-03-07T03:49:43.962Z,62.97
2023-03-07T03:52:10.628Z,63.18
2023-03-07T03:54:37.305Z,63.27
2023-03-07T03:57:04.087Z,63.46
2023-03-07T03:59:30.803Z,63.42
2023-03-07T04:01:57.534Z,63.15
2023-03-07T04:04:24.180Z,63.78
2023-03-07T04:06:51.086Z,63.31
2023-03-07T04:09:17.800Z,63.08
2023-03-07T04:11:44.409Z,63.94
2023-03-07T04:14:11.380Z,63.83
2023-03-07T04:16:38.102Z,63.26
2023-03-07T04:19:04.826Z,63.09
2023-03-07T04:21:31.468Z,63.48
2023-03-07T04:23:58.505Z,63.35
2023-03-07T04:26:25.759Z,63.32
2023-03-07T04:28:52.490Z,63.82
2023-03-07T04:31:25.832Z,64.21
2023-03-07T04:33:54.559Z,63.27
2023-03-07T04:36:22.396Z,63.79
2023-03-07T04:38:50.106Z,63.50
2023-03-07T04:41:19.524Z,63.78
2023-03-07T04:43:46.446Z,63.71
2023-03-07T04:46:14.889Z,63.82
2023-03-07T04:48:42.373Z,64.01
2023-03-07T04:51:09.264Z,63.10
2023-03-07T04:53:36.020Z,63.73
2023-03-07T04:56:05.541Z,63.86
2023-03-07T04:58:33.380Z,63.68
2023-03-07T05:01:02.320Z,63.84
2023-03-07T05:03:29.786Z,63.99
2023-03-07T05:05:56.399Z,63.86
2023-03-07T05:08:23.187Z,64.35
2023-03-07T05:10:49.934Z,63.82
2023-03-07T05:13:16.573Z,64.00
2023-03-07T05:15:44.041Z,63.50
2023-03-07T05:18:10.667Z,64.03
2023-03-07T05:20:38.085Z,63.93
2023-03-07T05:23:04.744Z,64.16
2023-03-07T05:25:31.734Z,63.53
2023-03-07T05:27:58.365Z,63.54
2023-03-07T05:30:24.996Z,64.24
2023-03-07T05:32:51.776Z,63.85
2023-03-07T05:35:19.211Z,63.73
2023-03-07T05:37:45.852Z,63.65
2023-03-07T05:40:14.028Z,63.64
2023-03-07T05:42:40.652Z,64.22
2023-03-07T05:45:07.863Z,64.22
2023-03-07T05:47:34.504Z,64.44
2023-03-07T05:50:01.293Z,63.50
2023-03-07T05:52:28.834Z,64.16
2023-03-07T05:54:55.825Z,63.93
2023-03-07T05:57:23.290Z,63.92
2023-03-07T05:59:49.965Z,63.74
2023-03-07T06:02:17.012Z,63.33
2023-03-07T06:04:44.229Z,64.08
2023-03-07T06:07:10.837Z,63.88
2023-03-07T06:09:37.436Z,63.69
2023-03-07T06:12:04.321Z,63.70
2023-03-07T06:14:32.406Z,63.56
2023-03-07T06:16:59.044Z,63.95
2023-03-07T06:19:25.799Z,64.14
2023-03-07T06:21:52.404Z,64.08
2023-03-07T06:24:19.040Z,64.01
2023-03-07T06:26:45.655Z,63.81
2023-03-07T06:29:12.286Z,64.52
2023-03-07T06:31:38.995Z,63.95
2023-03-07T06:34:05.742Z,64.40
2023-03-07T06:36:32.445Z,64.36
2023-03-07T06:39:02.207Z,64.48
2023-03-07T06:41:28.985Z,63.85
2023-03-07T06:43:55.662Z,63.79
2023-03-07T06:46:22.562Z,64.68
2023-03-07T06:48:51.192Z,64.74
2023-03-07T06:51:18.252Z,64.75
2023-03-07T06:53:44.962Z,64.03
2023-03-07T06:56:11.634Z,63.97
2023-03-07T06:58:38.238Z,64.47
2023-03-07T07:01:05.043Z,63.83
2023-03-07T07:03:31.698Z,64.83
2023-03-07T07:05:58.420Z,64.04
2023-03-07T07:08:25.050Z,64.54
2023-03-07T07:10:51.677Z,64.91
2023-03-07T07:13:18.320Z,64.43
2023-03-07T07:15:44.965Z,64.62
2023-03-07T07:18:14.049Z,64.78
2023-03-07T07:20:40.865Z,64.33
2023-03-07T07:23:07.482Z,64.44
2023-03-07T07:25:34.147Z,64.49
2023-03-07T07:28:00.751Z,64.42
2023-03-07T07:30:28.021Z,65.45
2023-03-07T07:32:54.835Z,64.30
2023-03-07T07:35:22.361Z,65.46
2023-03-07T07:37:49.043Z,65.36
2023-03-07T07:40:15.762Z,65.00
2023-03-07T07:42:43.633Z,65.23
2023-03-07T07:45:10.826Z,64.82
2023-03-07T07:47:37.520Z,65.78
2023-03-07T07:50:04.620Z,64.97
2023-03-07T07:52:31.252Z,65.93
2023-03-07T07:54:57.861Z,65.63
2023-03-07T07:57:24.534Z,65.20
2023-03-07T07:59:51.288Z,65.18
2023-03-07T08:02:17.954Z,66.04
2023-03-07T08:04:46.096Z,65.50
2023-03-07T08:07:14.178Z,65.71
2023-03-07T08:09:40.812Z,65.56
2023-03-07T08:12:09.982Z,66.12
2023-03-07T08:14:36.700Z,66.05
2023-03-07T08:17:03.591Z,66.17
2023-03-07T08:19:30.295Z,66.13
2023-03-07T08:21:57.022Z,66.22
2023-03-07T08:24:35.223Z,65.86
2023-03-07T08:27:06.772Z,66.36
2023-03-07T08:29:33.712Z,66.53
2023-03-07T08:32:00.353Z,66.57
2023-03-07T08:34:26.964Z,67.03
2023-03-07T08:36:53.616Z,66.79
2023-03-07T08:39:20.219Z,67.25
2023-03-07T08:41:46.814Z,67.85
2023-03-07T08:44:13.422Z,67.55
2023-03-07T08:46:40.080Z,67.26
2023-03-07T08:49:06.829Z,66.74
2023-03-07T08:51:33.491Z,66.89
2023-03-07T08:54:00.188Z,66.76
2023-03-07T08:56:27.351Z,66.56
2023-03-07T08:58:54.646Z,66.90
2023-03-07T09:01:21.566Z,66.12
2023-03-07T09:03:48.258Z,66.38
2023-03-07T09:06:20.829Z,66.56
2023-03-07T09:08:49.018Z,66.21
2023-03-07T09:11:16.839Z,65.82
2023-03-07T09:13:51.916Z,65.24
2023-03-07T09:16:20.351Z,65.26
2023-03-07T09:18:47.079Z,65.14
2023-03-07T09:21:13.803Z,64.96
2023-03-07T09:23:40.460Z,65.19
2023-03-07T09:26:07.096Z,64.85
2023-03-07T09:28:33.757Z,65.30
2023-03-07T09:31:00.595Z,64.78
2023-03-07T09:33:27.630Z,65.03
2023-03-07T09:35:54.405Z,64.75
2023-03-07T09:38:21.052Z,64.77
2023-03-07T09:40:48.366Z,64.91
2023-03-07T09:43:17.871Z,64.79
2023-03-07T09:46:02.939Z,64.61
2023-03-07T09:48:49.570Z,64.24
2023-03-07T09:51:25.289Z,64.22
2023-03-07T09:53:57.723Z,64.64
2023-03-07T09:56:31.063Z,64.42
2023-03-07T09:59:08.553Z,64.55
2023-03-07T10:01:44.481Z,64.48
2023-03-07T10:04:17.965Z,64.21
2023-03-07T10:06:48.619Z,64.12
2023-03-07T10:09:21.008Z,64.43
2023-03-07T10:11:53.694Z,64.15
2023-03-07T10:14:29.440Z,63.64
2023-03-07T10:17:02.028Z,63.67
2023-03-07T10:19:44.619Z,63.59
2023-03-07T10:22:20.656Z,63.63
2023-03-07T10:25:12.450Z,63.72
2023-03-07T10:27:39.456Z,63.50
2023-03-07T10:30:17.856Z,63.66
2023-03-07T10:32:47.546Z,63.46
2023-03-07T10:35:24.353Z,63.08
2023-03-07T10:38:09.649Z,62.94
2023-03-07T10:40:48.865Z,63.17
2023-03-07T10:43:23.715Z,62.75
2023-03-07T10:46:24.771Z,62.90
2023-03-07T10:48:55.135Z,62.60
2023-03-07T10:51:35.025Z,62.45
2023-03-07T10:54:02.898Z,62.43
2023-03-07T10:56:29.638Z,62.41
2023-03-07T10:59:00.845Z,62.23
2023-03-07T11:01:28.194Z,62.07
2023-03-07T11:04:05.121Z,62.16
2023-03-07T11:06:31.715Z,61.87
2023-03-07T11:09:15.951Z,61.86
2023-03-07T11:11:52.644Z,61.38
2023-03-07T11:14:20.515Z,61.34
2023-03-07T11:17:00.163Z,61.39
2023-03-07T11:19:40.723Z,61.30
2023-03-07T11:22:28.709Z,61.16
2023-03-07T11:25:26.665Z,61.12
2023-03-07T11:27:58.112Z,60.61
2023-03-07T11:30:28.044Z,60.71
2023-03-07T11:33:08.234Z,60.74
2023-03-07T11:35:43.154Z,60.61
2023-03-07T11:38:44.547Z,60.22
2023-03-07T11:41:19.940Z,60.16
2023-03-07T11:43:52.313Z,60.37
2023-03-07T11:46:41.349Z,60.15
2023-03-07T11:49:44.478Z,60.27
2023-03-07T11:52:14.295Z,60.20
2023-03-07T11:54:50.846Z,59.93
2023-03-07T11:57:40.281Z,59.67
2023-03-07T12:00:41.579Z,59.66
2023-03-07T12:03:08.227Z,59.57
2023-03-07T12:05:34.889Z,59.53
2023-03-07T12:08:15.344Z,59.33
2023-03-07T12:11:04.887Z,59.32
2023-03-07T12:13:40.702Z,58.79
2023-03-07T12:16:41.493Z,58.97
2023-03-07T12:19:25.039Z,58.84
2023-03-07T12:22:16.407Z,58.73
2023-03-07T12:25:17.662Z,58.47
2023-03-07T12:27:56.394Z,58.70
2023-03-07T12:30:30.920Z,58.81
2023-03-07T12:32:58.371Z,58.67
2023-03-07T12:35:25.469Z,58.61
2023-03-07T12:37:56.545Z,58.77
2023-03-07T12:40:35.731Z,58.59
2023-03-07T12:43:16.628Z,58.57
2023-03-07T12:45:57.711Z,58.40
2023-03-07T12:48:45.624Z,58.34
2023-03-07T12:51:27.016Z,58.14
2023-03-07T12:54:08.740Z,58.00
2023-03-07T12:56:59.598Z,58.06
2023-03-07T12:59:27.320Z,58.27
2023-03-07T13:02:04.085Z,58.22
2023-03-07T13:04:39.319Z,58.37
2023-03-07T13:07:11.332Z,58.15
2023-03-07T13:09:44.345Z,58.31
2023-03-07T13:12:16.174Z,58.23
2023-03-07T13:14:56.302Z,58.24
2023-03-07T13:17:33.260Z,58.01
2023-03-07T13:20:15.287Z,58.02
2023-03-07T13:22:41.949Z,57.99
2023-03-07T13:25:21.073Z,57.93
2023-03-07T13:27:51.653Z,58.02
2023-03-07T13:30:21.746Z,57.96
2023-03-07T13:32:48.462Z,57.96
2023-03-07T13:35:24.375Z,58.16
2023-03-07T13:37:57.062Z,58.06
2023-03-07T13:40:37.762Z,58.18
2023-03-07T13:43:27.286Z,57.96
2023-03-07T13:46:14.616Z,57.99
2023-03-07T13:48:41.217Z,57.86
2023-03-07T13:51:09.462Z,58.04
2023-03-07T13:53:50.959Z,58.25
2023-03-07T13:56:24.860Z,58.13
2023-03-07T13:59:09.961Z,58.17
2023-03-07T14:01:39.560Z,57.88
2023-03-07T14:04:16.951Z,58.07
2023-03-07T14:06:58.280Z,58.11
2023-03-07T14:09:39.580Z,58.30
2023-03-07T14:12:18.271Z,58.20
2023-03-07T14:14:47.802Z,58.34
2023-03-07T14:17:14.348Z,58.42
2023-03-07T14:19:49.719Z,58.55
2023-03-07T14:22:22.292Z,58.28
2023-03-07T14:25:10.807Z,58.61
2023-03-07T14:27:57.681Z,58.62
2023-03-07T14:30:28.044Z,58.80
2023-03-07T14:32:55.055Z,58.96
2023-03-07T14:35:45.223Z,59.22
2023-03-07T14:38:24.711Z,59.11
2023-03-07T14:41:08.969Z,59.05
2023-03-07T14:43:54.274Z,59.39
2023-03-07T14:46:59.924Z,59.30
2023-03-07T14:49:45.802Z,59.45
2023-03-07T14:52:29.659Z,60.23
2023-03-07T14:55:01.824Z,59.69
2023-03-07T14:57:36.745Z,59.90
2023-03-07T15:00:15.768Z,60.20
2023-03-07T15:02:54.525Z,60.23
2023-03-07T15:05:30.504Z,60.34
2023-03-07T15:07:57.778Z,60.56
2023-03-07T15:10:34.737Z,60.73
2023-03-07T15:13:05.055Z,60.83
2023-03-07T15:15:44.894Z,61.03
2023-03-07T15:18:26.911Z,61.05
2023-03-07T15:20:56.376Z,61.37
2023-03-07T15:23:27.801Z,61.16
2023-03-07T15:26:05.128Z,61.34
2023-03-07T15:28:36.944Z,61.58
2023-03-07T15:31:05.203Z,61.74
2023-03-07T15:33:35.822Z,61.77
2023-03-07T15:36:14.318Z,62.07
2023-03-07T15:38:50.403Z,61.94
2023-03-07T15:41:35.975Z,62.17
2023-03-07T15:44:11.680Z,62.28
2023-03-07T15:46:43.277Z,62.50
2023-03-07T15:49:50.106Z,62.59
2023-03-07T15:52:37.809Z,62.74
2023-03-07T15:55:08.250Z,62.34
2023-03-07T15:57:40.424Z,62.76
2023-03-07T16:00:16.661Z,63.05
2023-03-07T16:02:50.672Z,63.18
2023-03-07T16:05:20.856Z,62.68
2023-03-07T16:07:49.199Z,63.32
2023-03-07T16:10:16.155Z,63.57
2023-03-07T16:12:46.569Z,63.58
2023-03-07T16:15:17.963Z,63.27
2023-03-07T16:17:45.354Z,63.24
2023-03-07T16:20:18.714Z,63.42
2023-03-07T16:22:47.191Z,63.72
2023-03-07T16:25:15.759Z,63.69
2023-03-07T16:27:54.897Z,63.82
2023-03-07T16:30:24.395Z,64.32
2023-03-07T16:32:51.108Z,64.06
2023-03-07T16:35:21.412Z,64.41
2023-03-07T16:37:48.032Z,64.02
2023-03-07T16:40:16.104Z,64.35
2023-03-07T16:42:45.209Z,64.19
2023-03-07T16:45:18.812Z,64.31
2023-03-07T16:47:47.121Z,64.54
2023-03-07T16:50:18.817Z,64.97
2023-03-07T16:52:45.457Z,64.82
2023-03-07T16:55:14.527Z,64.62
2023-03-07T16:57:46.481Z,64.83
2023-03-07T17:00:16.967Z,64.87
2023-03-07T17:02:45.209Z,64.95
2023-03-07T17:05:25.794Z,65.73
2023-03-07T17:07:53.647Z,65.71
2023-03-07T17:10:20.864Z,65.57
2023-03-07T17:12:50.162Z,65.60
2023-03-07T17:15:19.986Z,65.86
2023-03-07T17:17:46.751Z,65.79
2023-03-07T17:20:20.483Z,65.91
2023-03-07T17:22:47.191Z,66.51
2023-03-07T17:25:13.852Z,66.33
2023-03-07T17:27:57.574Z,66.00
2023-03-07T17:30:27.143Z,66.30
2023-03-07T17:32:54.188Z,66.16
2023-03-07T17:35:21.937Z,66.50
2023-03-07T17:37:51.700Z,66.48
2023-03-07T17:40:19.162Z,67.11
2023-03-07T17:42:48.227Z,66.86
2023-03-07T17:45:14.840Z,66.60
2023-03-07T17:47:41.496Z,66.60
2023-03-07T17:50:09.631Z,67.08
2023-03-07T17:52:36.787Z,66.86
2023-03-07T17:55:03.775Z,66.90
2023-03-07T17:57:30.413Z,67.04
2023-03-07T17:59:57.011Z,66.96
2023-03-07T18:02:23.917Z,67.28
2023-03-07T18:04:51.646Z,67.07
2023-03-07T18:07:19.796Z,67.57
2023-03-07T18:09:48.454Z,67.58
2023-03-07T18:12:18.299Z,67.55
2023-03-07T18:14:44.993Z,67.59
2023-03-07T18:17:11.675Z,67.05
2023-03-07T18:19:39.339Z,67.56
2023-03-07T18:22:06.566Z,67.50
2023-03-07T18:24:33.291Z,67.14
2023-03-07T18:27:01.152Z,67.48
2023-03-07T18:29:29.102Z,67.46
2023-03-07T18:31:55.922Z,67.96
2023-03-07T18:34:24.715Z,68.01
2023-03-07T18:36:53.052Z,67.70
2023-03-07T18:39:22.686Z,67.89
2023-03-07T18:41:50.045Z,68.10
2023-03-07T18:44:18.654Z,67.88
2023-03-07T18:46:46.083Z,68.13
2023-03-07T18:49:13.085Z,68.53
2023-03-07T18:51:40.260Z,68.11
2023-03-07T18:54:08.983Z,68.06
2023-03-07T18:56:35.624Z,68.37
2023-03-07T18:59:02.284Z,68.12
2023-03-07T19:01:31.542Z,68.32
2023-03-07T19:04:01.363Z,68.51
2023-03-07T19:06:38.765Z,68.36
2023-03-07T19:09:05.520Z,68.11
2023-03-07T19:11:32.485Z,68.21
2023-03-07T19:13:59.577Z,68.64
2023-03-07T19:16:28.219Z,68.19
2023-03-07T19:18:55.845Z,68.28
2023-03-07T19:21:24.704Z,68.48
2023-03-07T19:23:53.263Z,68.83
2023-03-07T19:26:21.367Z,68.78
2023-03-07T19:28:50.709Z,68.88
2023-03-07T19:31:18.825Z,68.44
2023-03-07T19:33:47.104Z,68.59
2023-03-07T19:36:41.823Z,69.08
2023-03-07T19:39:10.548Z,68.73
2023-03-07T19:41:40.194Z,68.83
2023-03-07T19:44:12.085Z,68.78
2023-03-07T19:46:38.894Z,68.71
2023-03-07T19:49:05.520Z,68.71
2023-03-07T19:51:32.133Z,69.07
2023-03-07T19:53:58.749Z,68.91
2023-03-07T19:56:31.819Z,69.10
2023-03-07T19:59:00.809Z,68.98
2023-03-07T20:01:28.927Z,69.27
2023-03-07T20:03:55.896Z,69.52
2023-03-07T20:06:31.008Z,69.15
2023-03-07T20:08:59.746Z,69.29
2023-03-07T20:11:29.805Z,69.61
2023-03-07T20:13:58.737Z,69.50
2023-03-07T20:16:29.137Z,69.61
2023-03-07T20:19:01.546Z,69.53
2023-03-07T20:21:28.890Z,69.53
2023-03-07T20:23:59.406Z,69.32
2023-03-07T20:26:32.567Z,69.81
2023-03-07T20:29:01.306Z,69.62
2023-03-07T20:31:28.967Z,69.85
2023-03-07T20:33:58.341Z,70.03
2023-03-07T20:36:30.292Z,69.54
2023-03-07T20:38:58.973Z,69.94
2023-03-07T20:41:28.547Z,69.49
2023-03-07T20:44:02.581Z,69.83
2023-03-07T20:46:31.171Z,69.44
2023-03-07T20:49:00.030Z,69.72
2023-03-07T20:51:29.066Z,69.63
2023-03-07T20:53:59.113Z,69.75
2023-03-07T20:56:27.754Z,69.85
2023-03-07T20:58:55.493Z,70.04
2023-03-07T21:01:23.625Z,70.15
2023-03-07T21:03:51.603Z,70.08
2023-03-07T21:06:18.751Z,70.08
2023-03-07T21:08:47.550Z,70.23
2023-03-07T21:11:20.343Z,70.10
2023-03-07T21:13:49.447Z,70.00
2023-03-07T21:16:21.441Z,70.07
2023-03-07T21:18:48.765Z,70.21
2023-03-07T21:21:22.112Z,70.12
2023-03-07T21:23:49.129Z,70.29
2023-03-07T21:26:19.508Z,70.67
2023-03-07T21:28:47.113Z,70.24
2023-03-07T21:31:13.747Z,69.92
2023-03-07T21:33:42.543Z,70.30
2023-03-07T21:36:10.814Z,70.60
2023-03-07T21:38:39.769Z,70.24
2023-03-07T21:41:07.460Z,70.82
2023-03-07T21:43:34.100Z,70.67
2023-03-07T21:46:06.541Z,70.83
2023-03-07T21:48:33.946Z,70.41
2023-03-07T21:51:01.237Z,70.59
2023-03-07T21:53:28.139Z,70.66
2023-03-07T21:55:58.023Z,70.57
2023-03-07T21:58:25.219Z,70.88
2023-03-07T22:00:53.651Z,70.67
2023-03-07T22:03:20.573Z,70.81
2023-03-07T22:05:47.224Z,70.44
2023-03-07T22:08:16.056Z,71.10
2023-03-07T22:10:43.276Z,70.99
2023-03-07T22:13:10.372Z,71.18
2023-03-07T22:15:40.357Z,70.86
2023-03-07T22:18:07.109Z,71.35
2023-03-07T22:20:33.736Z,71.44
2023-03-07T22:23:00.378Z,71.00
2023-03-07T22:25:26.992Z,71.51
2023-03-07T22:27:53.680Z,71.21
2023-03-07T22:30:20.461Z,71.19
2023-03-07T22:32:47.173Z,71.46
2023-03-07T22:35:13.833Z,71.61
2023-03-07T22:37:41.827Z,71.02
2023-03-07T22:40:09.308Z,71.10
2023-03-07T22:42:35.932Z,71.74
2023-03-07T22:45:02.543Z,71.93
2023-03-07T22:47:31.147Z,71.47
2023-03-07T22:49:57.773Z,71.47
2023-03-07T22:52:24.820Z,71.63
2023-03-07T22:54:54.144Z,71.60
2023-03-07T22:57:21.091Z,71.34
2023-03-07T22:59:48.549Z,71.96
2023-03-07T23:02:15.166Z,71.45
2023-03-07T23:04:42.036Z,71.57
2023-03-07T23:07:08.713Z,71.78
2023-03-07T23:09:35.406Z,71.91
2023-03-07T23:12:02.078Z,72.05
2023-03-07T23:14:28.723Z,72.24
2023-03-07T23:16:55.329Z,71.67
2023-03-07T23:19:21.961Z,71.71
2023-03-07T23:21:48.612Z,71.63
2023-03-07T23:24:15.231Z,72.08
2023-03-07T23:26:42.035Z,71.93
2023-03-07T23:29:09.986Z,71.80
2023-03-07T23:31:38.840Z,72.36
2023-03-07T23:34:08.339Z,72.07
2023-03-07T23:36:35.308Z,72.37
2023-03-07T23:39:02.095Z,72.32
2023-03-07T23:41:28.759Z,72.37
2023-03-07T23:43:57.624Z,72.15
2023-03-07T23:46:24.756Z,72.46
2023-03-07T23:48:52.146Z,72.44
2023-03-07T23:51:19.424Z,72.07
2023-03-07T23:53:46.280Z,72.34
2023-03-07T23:56:13.448Z,72.16
2023-03-07T23:58:40.250Z,72.35
